createdAt,value
2022-08-05T00:05:27.339Z,0
2022-08-05T00:11:59.912Z,0
2022-08-05T00:17:27.858Z,0
2022-08-05T00:22:52.284Z,0
2022-08-05T00:28:35.533Z,0
2022-08-05T00:34:42.766Z,0
2022-08-05T00:40:30.726Z,0
2022-08-05T00:45:53.208Z,0
2022-08-05T00:51:50.108Z,0
2022-08-05T00:57:15.693Z,0
2022-08-05T01:02:54.518Z,0
2022-08-05T01:08:30.892Z,0
2022-08-05T01:14:10.143Z,0
2022-08-05T01:19:57.190Z,0
2022-08-05T01:25:39.509Z,0
2022-08-05T01:31:04.290Z,0
2022-08-05T01:36:27.885Z,0
2022-08-05T01:41:50.937Z,0
2022-08-05T01:47:16.036Z,0
2022-08-05T01:52:44.510Z,0
2022-08-05T01:58:15.225Z,0
2022-08-05T02:03:38.439Z,0
2022-08-05T02:09:08.419Z,0
2022-08-05T02:14:31.997Z,0
2022-08-05T02:19:54.643Z,0
2022-08-05T02:25:16.995Z,0
2022-08-05T02:36:05.766Z,0
2022-08-05T02:41:43.449Z,0
2022-08-05T02:47:24.723Z,0
2022-08-05T02:53:40.457Z,0
2022-08-05T02:59:03.109Z,0
2022-08-05T03:04:27.624Z,0
2022-08-05T03:09:51.925Z,0
2022-08-05T03:15:18.747Z,0
2022-08-05T03:20:41.543Z,0
2022-08-05T05:50:27.209Z,0.1
2022-08-05T05:55:51.311Z,0.1
2022-08-05T06:01:27.558Z,0.1
2022-08-05T06:07:22.365Z,0.1
2022-08-05T06:13:24.301Z,0.1
2022-08-05T06:18:47.379Z,0.2
2022-08-05T06:24:25.883Z,0.2
2022-08-05T06:30:04.040Z,0.2
2022-08-05T06:36:03.336Z,0.3
2022-08-05T06:41:40.505Z,0.3
2022-08-05T06:47:10.252Z,0.2
2022-08-05T06:54:18.285Z,0.2
2022-08-05T06:59:56.442Z,0.2
2022-08-05T07:05:23.395Z,0.2
2022-08-05T07:11:15.162Z,0.2
2022-08-05T07:17:56.112Z,0.3
2022-08-05T07:23:40.579Z,0.4
2022-08-05T07:29:15.298Z,0.3
2022-08-05T07:34:41.852Z,0.2
2022-08-05T07:45:09.374Z,0.3
2022-08-05T07:50:34.934Z,0.4
2022-08-05T07:56:39.600Z,0.2
2022-08-05T08:03:41.081Z,0.3
2022-08-05T08:09:13.714Z,0.4
2022-08-05T08:14:52.822Z,0.3
2022-08-05T08:20:44.745Z,0.3
2022-08-05T08:26:41.313Z,0.4
2022-08-05T08:32:04.062Z,0.3
2022-08-05T08:37:33.446Z,0.3
2022-08-05T08:43:21.228Z,0.4
2022-08-05T08:51:04.369Z,0.7
2022-08-05T08:57:42.179Z,0.4
2022-08-05T09:03:21.138Z,0.6
2022-08-05T09:08:44.081Z,0.6
2022-08-05T09:14:10.400Z,0.8
2022-08-05T09:20:39.067Z,0.8
2022-08-05T09:26:05.994Z,1.3
2022-08-05T09:31:43.777Z,1.5
2022-08-05T09:38:17.820Z,1.1
2022-08-05T09:43:52.294Z,1.6
2022-08-05T09:49:20.416Z,2.1
2022-08-05T09:54:43.433Z,1.9
2022-08-05T10:00:09.404Z,2
2022-08-05T10:05:33.824Z,2.5
2022-08-05T10:10:57.043Z,2.4
2022-08-05T10:16:19.897Z,2.4
2022-08-05T10:21:42.433Z,3.7
2022-08-05T10:27:07.528Z,2.6
2022-08-05T10:32:50.105Z,4
2022-08-05T10:38:32.990Z,6.6
2022-08-05T10:43:56.705Z,4.1
2022-08-05T10:55:00.987Z,2.7
2022-08-05T11:00:23.309Z,8.8
2022-08-05T11:05:46.949Z,9.4
2022-08-05T11:11:16.643Z,2.9
2022-08-05T11:22:17.625Z,7.5
2022-08-05T11:27:51.621Z,4.8
2022-08-05T11:33:25.344Z,6.6
2022-08-05T11:39:11.964Z,7.3
2022-08-05T11:49:42.742Z,2.3
2022-08-05T11:55:14.777Z,5.4
2022-08-05T12:00:37.945Z,3.5
2022-08-05T12:06:09.993Z,7.4
2022-08-05T12:11:40.064Z,7.1
2022-08-05T12:17:14.577Z,7.6
2022-08-05T12:23:34.876Z,7
2022-08-05T12:29:09.716Z,5.1
2022-08-05T12:34:45.088Z,3.2
2022-08-05T12:40:20.842Z,7.8
2022-08-05T12:45:55.948Z,5.2
2022-08-05T12:51:21.986Z,8.4
2022-08-05T12:58:39.507Z,7.9
2022-08-05T13:04:24.412Z,2.5
2022-08-05T13:09:50.612Z,5.2
2022-08-05T13:15:24.270Z,2.2
2022-08-05T13:21:11.819Z,1.3
2022-08-05T13:26:35.503Z,1.1
2022-08-05T13:32:21.540Z,0.5
2022-08-05T13:38:04.827Z,0.3
2022-08-05T13:43:43.840Z,0.4
2022-08-05T13:49:17.966Z,0.5
2022-08-05T13:54:40.966Z,0.7
2022-08-05T14:00:16.460Z,1.7
2022-08-05T14:12:00.478Z,2.4
2022-08-05T14:18:13.114Z,2.9
2022-08-05T14:23:47.042Z,2.8
2022-08-05T14:29:10.059Z,6.2
2022-08-05T14:34:49.714Z,2.5
2022-08-05T14:40:14.110Z,7
2022-08-05T14:45:40.738Z,3.1
2022-08-05T14:51:03.660Z,1.9
2022-08-05T14:56:37.956Z,1.7
2022-08-05T15:02:14.751Z,3.1
2022-08-05T15:08:04.678Z,2.4
2022-08-05T15:14:34.125Z,1.8
2022-08-05T15:20:15.555Z,2
2022-08-05T15:25:53.140Z,1.7
2022-08-05T15:31:34.666Z,1.4
2022-08-05T15:36:57.845Z,1.3
2022-08-05T15:43:31.308Z,1
2022-08-05T15:49:12.341Z,1.1
2022-08-05T15:55:18.691Z,1.1
2022-08-05T16:00:50.397Z,1.5
2022-08-05T16:06:40.607Z,1.2
2022-08-05T16:12:02.856Z,0.8
2022-08-05T16:17:25.550Z,0.8
2022-08-05T16:22:57.550Z,1.2
2022-08-05T16:28:20.487Z,1.1
2022-08-05T16:33:50.182Z,1.1
2022-08-05T16:39:12.593Z,1.2
2022-08-05T16:44:35.828Z,1.2
2022-08-05T16:50:06.187Z,0.9
2022-08-05T16:55:46.632Z,1.1
2022-08-05T17:01:10.504Z,1
2022-08-05T17:06:33.657Z,0.9
2022-08-05T17:12:16.690Z,0.7
2022-08-05T17:18:14.889Z,0.6
2022-08-05T17:24:03.942Z,0.8
2022-08-05T17:30:28.205Z,0.6
2022-08-05T17:36:07.160Z,0.5
2022-08-05T17:42:17.206Z,0.3
2022-08-05T17:53:10.377Z,0.4
2022-08-05T17:58:32.970Z,0.4
2022-08-05T18:03:59.885Z,0.4
2022-08-05T18:09:59.217Z,0.4
2022-08-05T18:15:34.247Z,0.3
2022-08-05T18:21:01.592Z,0.2
2022-08-05T18:26:27.427Z,0.2
2022-08-05T18:31:55.699Z,0.2
2022-08-05T18:37:33.763Z,0.2
2022-08-05T18:48:51.768Z,0.1
2022-08-05T18:55:10.488Z,0.1
2022-08-05T19:00:34.643Z,0.1
2022-08-05T19:06:21.496Z,0.1
2022-08-05T19:12:08.005Z,0.1
2022-08-05T19:17:58.309Z,0
2022-08-05T19:24:04.735Z,0
2022-08-05T19:29:36.626Z,0
2022-08-05T19:35:05.803Z,0
2022-08-05T19:46:06.526Z,0
2022-08-05T19:52:06.270Z,0
2022-08-05T19:58:24.658Z,0
2022-08-05T20:09:54.285Z,0
2022-08-05T20:15:23.557Z,0
2022-08-05T20:21:21.884Z,0
2022-08-05T20:26:45.460Z,0
2022-08-05T20:32:08.468Z,0
2022-08-05T20:38:05.151Z,0
2022-08-05T20:43:33.443Z,0
2022-08-05T20:50:05.300Z,0
2022-08-05T20:55:54.560Z,0
2022-08-05T21:01:37.273Z,0
2022-08-05T21:07:09.644Z,0
2022-08-05T21:18:00.486Z,0
2022-08-05T21:23:30.456Z,0
2022-08-05T21:29:05.803Z,0
2022-08-05T21:35:29.651Z,0
2022-08-05T21:41:22.080Z,0
2022-08-05T21:46:44.729Z,0
2022-08-05T21:52:17.081Z,0
2022-08-05T21:57:58.085Z,0
2022-08-05T22:03:20.676Z,0
2022-08-05T22:09:20.935Z,0
2022-08-05T22:15:08.700Z,0
2022-08-05T22:21:24.336Z,0
2022-08-05T22:26:49.583Z,0
2022-08-05T22:32:38.596Z,0
2022-08-05T22:38:03.869Z,0
2022-08-05T22:43:36.394Z,0
2022-08-05T22:49:03.827Z,0
2022-08-05T22:54:28.849Z,0
2022-08-05T22:59:54.000Z,0
2022-08-05T23:05:16.915Z,0
2022-08-05T23:10:48.446Z,0
2022-08-05T23:16:26.169Z,0
2022-08-05T23:21:57.533Z,0
2022-08-05T23:27:21.241Z,0
2022-08-05T23:32:54.185Z,0
2022-08-05T23:38:23.362Z,0
2022-08-05T23:44:03.317Z,0
2022-08-05T23:49:34.059Z,0
2022-08-05T23:55:00.587Z,0
